L'image de la webcam se met à jour toutes les 30s.
La jauge météo se met à jour toutes les 10s d'après les données envoyées par la station météo du club.
Les graphiques se mettent à jour toutes les 5min et ne s'affichent que si la station est en ligne
METAR de LFRD (Source NOAA)
LFRD 051530Z AUTO 22014KT 180V240 9999 SCT046 26/15 Q1014 NOSIG

TAF de LFRD (Source NOAA)
TAF LFRD 051100Z 0512/0612 20010G20KT 9999 SCT015 SCT020 BECMG 0516/0518 25008KT TEMPO 0603/0608 3000 BR
Ayez la webcam en fond d'écran de votre téléphone ou de votre tablette Android avec l'appli du club.